• Join FlightAware (Why Join?)
  • Login
  • US Flag 
06:25PM EDT


 

Airport Tracker/Info


-or-


 

Live Flight TrackerFlight Track Log ✈ ASQ4538 ✈ 05-May-2013 ✈ KGRR - KEWR

Flight Track Log - Related Links

Times and Time Zones

All times are in EDT time to prevent confusion due to time zone crossing. See the ASQ4538 flight status page for this flight to view local times or setup timezone preferences in your user account.

Time Position Orientation Groundspeed Altitude Reporting Facility
EDT Latitude Longitude Course Direction KTS MPH feet Rate Location/Type
08:49PM 42.8842 -85.4656 107° East 193 222 3,100  Level Chicago Center
08:50PM 42.8650 -85.3847 108° East 225 259 5,200 2,580 Climbing Chicago Center
08:52PM 42.7592 -85.0460 105° East  Level FlightAware Approximate
08:52PM 42.8383 -85.2744 108° East 252 290 8,500  Level Chicago Center
08:53PM 42.7330 -84.9261 107° East  Level FlightAware Approximate
08:53PM 42.8153 -85.1806 108° East 260 299 10,900  Level Chicago Center
08:54PM 42.7054 -84.8068 107° East  Level FlightAware Approximate
08:54PM 42.7892 -85.0769 109° East 285 328 12,500  Level Chicago Center
08:55PM 42.6766 -84.6780 107° East  Level FlightAware Approximate
08:55PM 42.7611 -84.9647 109° East 309 356 14,500  Level Chicago Center
08:56PM 42.7333 -84.8517 108° East 314 361 16,400 1,560 Climbing Chicago Center
08:57PM 42.7042 -84.7367 109° East 323 372 17,800 1,680 Climbing Chicago Center
08:58PM 42.6689 -84.5950 109° East 328 377 19,900 1,500 Climbing Chicago Center
08:59PM 42.6367 -84.4708 109° East 346 398 20,900 960 Climbing Chicago Center
09:00PM 42.6039 -84.3378 108° East 368 423 21,900 1,020 Climbing Chicago Center
09:01PM 42.5694 -84.2175 111° Southeast 367 422 22,900 1,080 Climbing Cleveland Center
09:02PM 42.5342 -84.0803 109° East 378 435 24,000 1,020 Climbing Cleveland Center
09:03PM 42.4947 -83.9317 110° East 378 435 25,000 480 Climbing Cleveland Center
09:04PM 42.4572 -83.7861 109° East 390 449 25,000 120 Level Cleveland Center
09:05PM 42.4156 -83.6319 110° East 409 471 25,300 720 Climbing Cleveland Center
09:06PM 42.3836 -83.4956 108° East 419 482 26,500 1,200 Climbing Cleveland Center
09:07PM 42.3581 -83.3483 103° East 414 476 27,800 1,440 Climbing Cleveland Center
09:08PM 42.3244 -83.1894 106° East 399 459 29,400 1,500 Climbing Cleveland Center
09:09PM 42.2942 -83.0506 106° East 399 459 30,900 1,500 Climbing Cleveland Center
09:10PM 42.2656 -82.9119 106° East 393 452 32,500 1,500 Climbing Cleveland Center
09:11PM 42.2433 -82.7708 102° East 388 447 34,000 1,200 Climbing Cleveland Center
09:12PM 42.2294 -82.6275 97° East 381 438 35,000 480 Climbing Cleveland Center
09:13PM 42.2175 -82.4756 96° East 388 447 35,000  Level Cleveland Center
09:14PM 42.2033 -82.3156 97° East 412 474 35,000  Level Cleveland Center
09:15PM 42.1911 -82.1469 96° East 432 497 35,000  Level Cleveland Center
09:16PM 42.1806 -82.0036 96° East 443 510 35,000  Level Cleveland Center
09:17PM 42.1656 -81.8408 97° East 443 510 35,000  Level Cleveland Center
09:18PM 42.1506 -81.6781 97° East 443 510 35,000  Level Cleveland Center
09:19PM 42.1356 -81.5128 97° East 448 516 35,000  Level Cleveland Center
09:20PM 42.1219 -81.3475 96° East 441 507 35,000  Level Cleveland Center
09:21PM 42.1022 -81.1708 98° East 446 513 35,000  Level Cleveland Center
09:22PM 42.0864 -81.0028 97° East 446 513 35,000  Level Cleveland Center
09:23PM 42.0700 -80.8433 98° East 441 507 35,000  Level Cleveland Center
09:24PM 42.0558 -80.6811 97° East 441 507 35,000  Level Cleveland Center
09:25PM 42.0392 -80.5217 98° East 435 501 35,000  Level Cleveland Center
09:26PM 42.0244 -80.3625 97° East 430 495 35,000  Level Cleveland Center
09:27PM 41.9844 -80.2061 109° East 430 495 35,000  Level Cleveland Center
09:28PM 41.9400 -80.0694 114° Southeast 440 506 35,000  Level Cleveland Center
09:29PM 41.8892 -79.9222 115° Southeast 440 506 35,000  Level Cleveland Center
09:30PM 41.8342 -79.7694 116° Southeast 446 513 35,000  Level Cleveland Center
09:31PM 41.7786 -79.6031 114° Southeast 446 513 35,000  Level Cleveland Center
09:32PM 41.7253 -79.4536 116° Southeast 446 513 35,000  Level Cleveland Center
09:33PM 41.6942 -79.2900 104° East 446 513 35,000  Level Cleveland Center
09:34PM 41.6758 -79.1403 99° East 446 513 35,000  Level Cleveland Center
09:35PM 41.6525 -78.9603 100° East 446 513 35,000  Level Cleveland Center
09:36PM 41.6272 -78.7942 101° East 446 513 35,000  Level Cleveland Center
09:37PM 41.6078 -78.6308 99° East 446 513 35,000  Level Cleveland Center
09:38PM 41.5842 -78.4733 101° East 446 513 35,000  Level Cleveland Center
09:39PM 41.5617 -78.3042 100° East 438 504 35,000  Level New York Center
09:40PM 41.5364 -78.1406 102° East 429 494 35,000  Level New York Center
09:41PM 41.5153 -77.9775 100° East 439 505 35,000  Level New York Center
09:42PM 41.4897 -77.8111 102° East 439 505 35,000  Level New York Center
09:43PM 41.4658 -77.6481 101° East 444 511 35,000 -300 Level New York Center
09:44PM 41.4483 -77.5189 100° East 444 511 34,500 -1,260 Descending New York Center
09:45PM 41.4208 -77.3392 101° East 444 511 32,500 -1,920 Descending New York Center
09:46PM 41.4000 -77.1903 101° East 444 511 30,600 -1,620 Descending New York Center
09:47PM 41.3706 -76.9994 102° East 444 511 29,300 -1,500 Descending New York Center
09:48PM 41.3456 -76.8369 102° East 444 511 27,600 -1,800 Descending New York Center
09:49PM 41.3097 -76.6789 107° East 444 511 25,700 -2,040 Descending New York Center
09:50PM 41.2697 -76.5208 109° East 444 511 23,600 -2,040 Descending New York Center
09:51PM 41.2289 -76.3739 110° East 444 511 21,600 -1,980 Descending New York Center
09:52PM 41.1914 -76.2358 110° East 422 486 19,700 -1,920 Descending New York Center
09:53PM 41.1561 -76.1006 109° East 396 456 17,900 -1,560 Descending New York Center
09:54PM 41.1186 -75.9600 109° East 396 456 16,600 -1,380 Descending New York Center
09:55PM 41.0825 -75.8278 110° East 396 456 15,200 -1,500 Descending New York Center
09:56PM 41.0517 -75.7208 111° Southeast 365 420 13,700 -1,200 Descending New York Center
09:57PM 41.0211 -75.6058 109° East 312 359 12,900 -540 Descending New York Center
09:58PM 40.9681 -75.5253 131° Southeast 293 337 12,700 -720 Descending New York Center
09:59PM 40.9342 -75.4350 116° Southeast 278 320 11,600 -1,080 Descending New York Center
10:00PM 40.9153 -75.3319 104° East 278 320 10,600 -960 Descending New York Center
10:01PM 40.9003 -75.2322 101° East 278 320 9,700 -1,020 Descending New York Center
10:02PM 40.8867 -75.1461 102° East 278 320 8,700 -1,020 Descending New York Center
10:03PM 40.8739 -75.0439 99° East 278 320 7,800 -960 Descending New York Center
10:04PM 40.8650 -74.9392 96° East 273 314 6,800 -900 Descending New York Center
10:05PM 40.8578 -74.8508 96° East 273 314 6,000 -420 Descending New York Center
10:06PM 40.8758 -74.7531 76° East 251 289 6,000 -120 Level New York Center
10:07PM 40.9011 -74.6750 67° East 251 289 5,800 -540 Descending New York Center
10:08PM 40.9314 -74.5806 67° East 258 297 5,000 -420 Descending New York Center
10:09PM 40.9569 -74.5022 67° East 253 291 5,000 -120 Level New York Center
10:10PM 40.9911 -74.4053 65° Northeast 253 291 4,800 -540 Descending New York Center
10:10PM 41.0167 -74.3500 58° Northeast 258 297 4,200 -660 Descending New York TRACON
10:11PM 41.0000 -74.2667 105° East 237 273 3,800 -600 Descending New York TRACON
10:12PM 40.9667 -74.2000 123° Southeast 241 277 3,000 -420 Descending New York TRACON
10:13PM 40.9333 -74.1167 118° Southeast 223 257 3,000  Level New York TRACON
10:14PM 40.9000 -74.0833 143° Southeast 181 208 3,000  Level New York TRACON
10:15PM 40.8500 -74.0667 166° South 185 213 3,000 -300 Level New York TRACON
10:16PM 40.8000 -74.1000 207° Southwest 190 219 2,400 -840 Descending New York TRACON
10:17PM 40.7500 -74.1167 194° South 171 197 1,400 -960 Descending New York TRACON
10:18PM 40.7167 -74.1500 217° Southwest 130 150 600 -900 Descending New York TRACON